sensor_id;sensor_type;location;lat;lon;timestamp;temperature;humidity
37342;DHT22;58643;49.052;8.518;2022-08-06T00:02:17;21.30;85.50
37342;DHT22;58643;49.052;8.518;2022-08-06T00:04:46;21.90;85.70
37342;DHT22;58643;49.052;8.518;2022-08-06T00:07:11;21.30;85.40
37342;DHT22;58643;49.052;8.518;2022-08-06T00:09:37;21.10;84.70
37342;DHT22;58643;49.052;8.518;2022-08-06T00:12:04;21.20;84.90
37342;DHT22;58643;49.052;8.518;2022-08-06T00:14:31;21.20;84.50
37342;DHT22;58643;49.052;8.518;2022-08-06T00:16:58;21.30;84.60
37342;DHT22;58643;49.052;8.518;2022-08-06T00:19:24;21.10;84.40
37342;DHT22;58643;49.052;8.518;2022-08-06T00:21:51;21.10;83.90
37342;DHT22;58643;49.052;8.518;2022-08-06T00:24:17;21.10;83.30
37342;DHT22;58643;49.052;8.518;2022-08-06T00:26:43;21.10;83.40
37342;DHT22;58643;49.052;8.518;2022-08-06T00:29:09;21.10;83.60
37342;DHT22;58643;49.052;8.518;2022-08-06T00:31:34;21.00;83.50
37342;DHT22;58643;49.052;8.518;2022-08-06T00:34:00;21.00;83.40
37342;DHT22;58643;49.052;8.518;2022-08-06T00:36:28;21.00;83.60
37342;DHT22;58643;49.052;8.518;2022-08-06T00:38:54;21.00;83.40
37342;DHT22;58643;49.052;8.518;2022-08-06T00:41:21;20.90;83.60
37342;DHT22;58643;49.052;8.518;2022-08-06T00:43:47;21.00;83.30
37342;DHT22;58643;49.052;8.518;2022-08-06T00:46:13;20.90;83.40
37342;DHT22;58643;49.052;8.518;2022-08-06T00:48:39;20.90;83.70
37342;DHT22;58643;49.052;8.518;2022-08-06T00:51:05;20.90;83.90
37342;DHT22;58643;49.052;8.518;2022-08-06T00:53:30;20.80;83.90
37342;DHT22;58643;49.052;8.518;2022-08-06T00:55:56;20.90;84.20
37342;DHT22;58643;49.052;8.518;2022-08-06T00:58:22;20.80;84.40
37342;DHT22;58643;49.052;8.518;2022-08-06T01:00:47;20.80;85.00
37342;DHT22;58643;49.052;8.518;2022-08-06T01:03:13;19.10;84.30
37342;DHT22;58643;49.052;8.518;2022-08-06T01:05:42;20.70;85.40
37342;DHT22;58643;49.052;8.518;2022-08-06T01:08:09;20.60;85.40
37342;DHT22;58643;49.052;8.518;2022-08-06T01:10:34;20.60;85.60
37342;DHT22;58643;49.052;8.518;2022-08-06T01:13:00;20.60;85.50
37342;DHT22;58643;49.052;8.518;2022-08-06T01:15:26;20.90;85.60
37342;DHT22;58643;49.052;8.518;2022-08-06T01:18:02;20.60;85.80
37342;DHT22;58643;49.052;8.518;2022-08-06T01:20:42;20.50;83.60
37342;DHT22;58643;49.052;8.518;2022-08-06T01:23:22;21.90;86.80
37342;DHT22;58643;49.052;8.518;2022-08-06T01:29:04;20.50;83.90
37342;DHT22;58643;49.052;8.518;2022-08-06T01:31:42;20.10;85.80
37342;DHT22;58643;49.052;8.518;2022-08-06T01:34:30;20.70;86.10
37342;DHT22;58643;49.052;8.518;2022-08-06T01:37:20;20.40;86.00
37342;DHT22;58643;49.052;8.518;2022-08-06T01:39:50;20.40;84.00
37342;DHT22;58643;49.052;8.518;2022-08-06T01:42:16;20.40;86.30
37342;DHT22;58643;49.052;8.518;2022-08-06T01:44:46;20.30;86.30
37342;DHT22;58643;49.052;8.518;2022-08-06T01:47:12;20.30;86.60
37342;DHT22;58643;49.052;8.518;2022-08-06T01:49:43;20.30;85.90
37342;DHT22;58643;49.052;8.518;2022-08-06T01:52:10;20.30;85.80
37342;DHT22;58643;49.052;8.518;2022-08-06T01:54:39;20.20;85.70
37342;DHT22;58643;49.052;8.518;2022-08-06T01:57:06;20.20;85.90
37342;DHT22;58643;49.052;8.518;2022-08-06T01:59:34;20.30;86.00
37342;DHT22;58643;49.052;8.518;2022-08-06T02:02:03;20.10;85.90
37342;DHT22;58643;49.052;8.518;2022-08-06T02:04:35;20.10;86.30
37342;DHT22;58643;49.052;8.518;2022-08-06T02:07:03;21.50;87.20
37342;DHT22;58643;49.052;8.518;2022-08-06T02:09:31;20.00;86.40
37342;DHT22;58643;49.052;8.518;2022-08-06T02:12:10;20.80;87.10
37342;DHT22;58643;49.052;8.518;2022-08-06T02:14:42;20.00;87.00
37342;DHT22;58643;49.052;8.518;2022-08-06T02:17:10;20.00;86.80
37342;DHT22;58643;49.052;8.518;2022-08-06T02:19:36;20.10;87.10
37342;DHT22;58643;49.052;8.518;2022-08-06T02:22:03;19.90;87.40
37342;DHT22;58643;49.052;8.518;2022-08-06T02:24:29;20.10;87.80
37342;DHT22;58643;49.052;8.518;2022-08-06T02:26:58;19.90;87.90
37342;DHT22;58643;49.052;8.518;2022-08-06T02:29:26;19.80;88.00
37342;DHT22;58643;49.052;8.518;2022-08-06T02:31:53;20.50;88.60
37342;DHT22;58643;49.052;8.518;2022-08-06T02:34:20;19.80;88.50
37342;DHT22;58643;49.052;8.518;2022-08-06T02:36:52;19.70;88.90
37342;DHT22;58643;49.052;8.518;2022-08-06T02:39:38;20.90;89.70
37342;DHT22;58643;49.052;8.518;2022-08-06T02:42:31;19.60;87.60
37342;DHT22;58643;49.052;8.518;2022-08-06T02:45:36;19.30;88.00
37342;DHT22;58643;49.052;8.518;2022-08-06T02:48:26;19.30;88.60
37342;DHT22;58643;49.052;8.518;2022-08-06T02:50:53;19.20;90.70
37342;DHT22;58643;49.052;8.518;2022-08-06T02:53:24;19.00;90.90
37342;DHT22;58643;49.052;8.518;2022-08-06T02:55:53;20.40;91.70
37342;DHT22;58643;49.052;8.518;2022-08-06T02:58:28;18.80;91.40
37342;DHT22;58643;49.052;8.518;2022-08-06T03:00:58;19.60;91.90
37342;DHT22;58643;49.052;8.518;2022-08-06T03:03:26;18.70;91.90
37342;DHT22;58643;49.052;8.518;2022-08-06T03:05:54;18.60;92.00
37342;DHT22;58643;49.052;8.518;2022-08-06T03:08:23;18.60;92.20
37342;DHT22;58643;49.052;8.518;2022-08-06T03:10:51;18.50;92.40
37342;DHT22;58643;49.052;8.518;2022-08-06T03:13:18;18.40;92.50
37342;DHT22;58643;49.052;8.518;2022-08-06T03:15:46;18.50;92.80
37342;DHT22;58643;49.052;8.518;2022-08-06T03:18:12;18.40;92.90
37342;DHT22;58643;49.052;8.518;2022-08-06T03:20:39;18.50;93.00
37342;DHT22;58643;49.052;8.518;2022-08-06T03:23:07;18.50;93.10
37342;DHT22;58643;49.052;8.518;2022-08-06T03:25:35;18.50;93.10
37342;DHT22;58643;49.052;8.518;2022-08-06T03:28:02;18.40;93.40
37342;DHT22;58643;49.052;8.518;2022-08-06T03:30:29;18.30;93.50
37342;DHT22;58643;49.052;8.518;2022-08-06T03:32:56;18.40;93.70
37342;DHT22;58643;49.052;8.518;2022-08-06T03:35:23;18.30;93.80
37342;DHT22;58643;49.052;8.518;2022-08-06T03:37:51;18.30;93.90
37342;DHT22;58643;49.052;8.518;2022-08-06T03:40:17;18.30;94.10
37342;DHT22;58643;49.052;8.518;2022-08-06T03:42:44;18.50;94.50
37342;DHT22;58643;49.052;8.518;2022-08-06T03:45:10;18.40;94.40
37342;DHT22;58643;49.052;8.518;2022-08-06T03:47:43;18.20;94.60
37342;DHT22;58643;49.052;8.518;2022-08-06T03:50:22;18.20;94.80
37342;DHT22;58643;49.052;8.518;2022-08-06T03:53:01;18.40;95.10
37342;DHT22;58643;49.052;8.518;2022-08-06T03:55:31;18.00;95.20
37342;DHT22;58643;49.052;8.518;2022-08-06T03:58:00;18.50;95.50
37342;DHT22;58643;49.052;8.518;2022-08-06T04:00:29;18.00;95.70
37342;DHT22;58643;49.052;8.518;2022-08-06T04:02:56;17.80;95.80
37342;DHT22;58643;49.052;8.518;2022-08-06T04:05:25;17.80;95.90
37342;DHT22;58643;49.052;8.518;2022-08-06T04:07:54;17.50;96.10
37342;DHT22;58643;49.052;8.518;2022-08-06T04:10:21;17.80;96.30
37342;DHT22;58643;49.052;8.518;2022-08-06T04:12:48;17.70;96.40
37342;DHT22;58643;49.052;8.518;2022-08-06T04:15:14;18.20;96.60
37342;DHT22;58643;49.052;8.518;2022-08-06T04:17:42;17.50;96.90
37342;DHT22;58643;49.052;8.518;2022-08-06T04:20:11;18.30;97.00
37342;DHT22;58643;49.052;8.518;2022-08-06T04:22:37;17.50;97.00
37342;DHT22;58643;49.052;8.518;2022-08-06T04:25:03;17.70;97.30
37342;DHT22;58643;49.052;8.518;2022-08-06T04:27:30;17.50;97.20
37342;DHT22;58643;49.052;8.518;2022-08-06T04:29:56;19.20;97.90
37342;DHT22;58643;49.052;8.518;2022-08-06T04:32:25;18.10;97.90
37342;DHT22;58643;49.052;8.518;2022-08-06T04:34:52;17.50;97.90
37342;DHT22;58643;49.052;8.518;2022-08-06T04:37:18;17.40;97.80
37342;DHT22;58643;49.052;8.518;2022-08-06T04:39:44;17.60;97.80
37342;DHT22;58643;49.052;8.518;2022-08-06T04:42:10;17.40;97.80
37342;DHT22;58643;49.052;8.518;2022-08-06T04:44:36;17.70;97.90
37342;DHT22;58643;49.052;8.518;2022-08-06T04:47:03;17.40;97.90
37342;DHT22;58643;49.052;8.518;2022-08-06T04:49:29;17.30;97.80
37342;DHT22;58643;49.052;8.518;2022-08-06T04:51:55;17.40;97.90
37342;DHT22;58643;49.052;8.518;2022-08-06T04:54:21;17.40;97.80
37342;DHT22;58643;49.052;8.518;2022-08-06T04:56:46;17.60;97.90
37342;DHT22;58643;49.052;8.518;2022-08-06T04:59:12;17.30;97.80
37342;DHT22;58643;49.052;8.518;2022-08-06T05:01:38;18.70;98.20
37342;DHT22;58643;49.052;8.518;2022-08-06T05:04:04;17.50;97.70
37342;DHT22;58643;49.052;8.518;2022-08-06T05:06:48;17.70;97.80
37342;DHT22;58643;49.052;8.518;2022-08-06T05:09:19;17.40;97.00
37342;DHT22;58643;49.052;8.518;2022-08-06T05:11:52;18.80;98.10
37342;DHT22;58643;49.052;8.518;2022-08-06T05:14:35;17.40;97.60
37342;DHT22;58643;49.052;8.518;2022-08-06T05:17:02;17.50;96.50
37342;DHT22;58643;49.052;8.518;2022-08-06T05:19:44;17.30;97.40
37342;DHT22;58643;49.052;8.518;2022-08-06T05:22:13;18.00;97.60
37342;DHT22;58643;49.052;8.518;2022-08-06T05:24:41;17.90;97.70
37342;DHT22;58643;49.052;8.518;2022-08-06T05:27:09;17.50;97.60
37342;DHT22;58643;49.052;8.518;2022-08-06T05:29:35;17.40;97.60
37342;DHT22;58643;49.052;8.518;2022-08-06T05:32:00;17.30;97.50
37342;DHT22;58643;49.052;8.518;2022-08-06T05:34:27;17.30;97.60
37342;DHT22;58643;49.052;8.518;2022-08-06T05:36:52;17.70;97.80
37342;DHT22;58643;49.052;8.518;2022-08-06T05:39:18;17.40;97.70
37342;DHT22;58643;49.052;8.518;2022-08-06T05:41:45;17.50;97.50
37342;DHT22;58643;49.052;8.518;2022-08-06T05:44:11;17.90;97.50
37342;DHT22;58643;49.052;8.518;2022-08-06T05:46:44;18.00;97.30
37342;DHT22;58643;49.052;8.518;2022-08-06T05:49:14;17.80;97.20
37342;DHT22;58643;49.052;8.518;2022-08-06T05:51:49;17.90;97.30
37342;DHT22;58643;49.052;8.518;2022-08-06T05:54:32;17.50;97.00
37342;DHT22;58643;49.052;8.518;2022-08-06T05:57:31;17.50;96.00
37342;DHT22;58643;49.052;8.518;2022-08-06T06:00:03;17.50;95.80
37342;DHT22;58643;49.052;8.518;2022-08-06T06:02:33;19.20;97.10
37342;DHT22;58643;49.052;8.518;2022-08-06T06:04:59;19.20;97.10
37342;DHT22;58643;49.052;8.518;2022-08-06T06:07:25;17.90;96.60
37342;DHT22;58643;49.052;8.518;2022-08-06T06:09:52;18.30;96.70
37342;DHT22;58643;49.052;8.518;2022-08-06T06:12:19;18.10;96.80
37342;DHT22;58643;49.052;8.518;2022-08-06T06:14:46;17.80;96.30
37342;DHT22;58643;49.052;8.518;2022-08-06T06:23:00;18.10;94.90
37342;DHT22;58643;49.052;8.518;2022-08-06T06:25:33;18.20;95.60
37342;DHT22;58643;49.052;8.518;2022-08-06T06:28:05;18.30;94.70
37342;DHT22;58643;49.052;8.518;2022-08-06T06:30:53;18.30;95.50
37342;DHT22;58643;49.052;8.518;2022-08-06T06:44:12;19.00;94.80
37342;DHT22;58643;49.052;8.518;2022-08-06T06:49:39;19.00;94.30
37342;DHT22;58643;49.052;8.518;2022-08-06T06:52:14;19.00;93.40
37342;DHT22;58643;49.052;8.518;2022-08-06T06:54:50;19.40;94.20
37342;DHT22;58643;49.052;8.518;2022-08-06T06:57:23;19.30;93.90
37342;DHT22;58643;49.052;8.518;2022-08-06T06:59:52;19.40;92.70
37342;DHT22;58643;49.052;8.518;2022-08-06T07:02:22;20.60;93.80
37342;DHT22;58643;49.052;8.518;2022-08-06T07:04:50;19.40;93.40
37342;DHT22;58643;49.052;8.518;2022-08-06T07:07:17;19.90;93.50
37342;DHT22;58643;49.052;8.518;2022-08-06T07:09:44;19.90;93.20
37342;DHT22;58643;49.052;8.518;2022-08-06T07:12:15;20.00;92.80
37342;DHT22;58643;49.052;8.518;2022-08-06T07:14:44;20.10;92.90
37342;DHT22;58643;49.052;8.518;2022-08-06T07:17:11;21.40;92.90
37342;DHT22;58643;49.052;8.518;2022-08-06T07:19:38;20.30;92.50
37342;DHT22;58643;49.052;8.518;2022-08-06T07:22:04;20.80;92.50
37342;DHT22;58643;49.052;8.518;2022-08-06T07:24:33;20.20;92.60
37342;DHT22;58643;49.052;8.518;2022-08-06T07:27:00;21.90;92.80
37342;DHT22;58643;49.052;8.518;2022-08-06T07:29:27;20.80;91.70
37342;DHT22;58643;49.052;8.518;2022-08-06T07:31:55;22.20;91.90
37342;DHT22;58643;49.052;8.518;2022-08-06T07:34:21;20.50;90.70
37342;DHT22;58643;49.052;8.518;2022-08-06T07:36:51;20.80;90.50
37342;DHT22;58643;49.052;8.518;2022-08-06T07:39:17;20.60;90.60
37342;DHT22;58643;49.052;8.518;2022-08-06T07:41:47;20.80;90.30
37342;DHT22;58643;49.052;8.518;2022-08-06T07:44:13;20.70;89.80
37342;DHT22;58643;49.052;8.518;2022-08-06T07:46:43;21.00;87.10
37342;DHT22;58643;49.052;8.518;2022-08-06T07:49:08;21.20;86.60
37342;DHT22;58643;49.052;8.518;2022-08-06T07:51:39;21.50;85.80
37342;DHT22;58643;49.052;8.518;2022-08-06T07:54:06;21.30;84.20
37342;DHT22;58643;49.052;8.518;2022-08-06T07:56:35;20.80;82.00
37342;DHT22;58643;49.052;8.518;2022-08-06T07:59:02;21.40;81.90
37342;DHT22;58643;49.052;8.518;2022-08-06T08:01:29;21.40;81.40
37342;DHT22;58643;49.052;8.518;2022-08-06T08:03:56;21.40;80.70
37342;DHT22;58643;49.052;8.518;2022-08-06T08:06:41;21.40;79.30
37342;DHT22;58643;49.052;8.518;2022-08-06T08:09:13;22.00;79.60
37342;DHT22;58643;49.052;8.518;2022-08-06T08:11:44;21.80;79.10
37342;DHT22;58643;49.052;8.518;2022-08-06T08:14:13;22.70;78.40
37342;DHT22;58643;49.052;8.518;2022-08-06T08:16:40;21.90;76.20
37342;DHT22;58643;49.052;8.518;2022-08-06T08:19:27;22.00;75.10
37342;DHT22;58643;49.052;8.518;2022-08-06T08:21:57;21.90;74.00
37342;DHT22;58643;49.052;8.518;2022-08-06T08:24:24;22.00;75.30
37342;DHT22;58643;49.052;8.518;2022-08-06T08:26:50;22.10;75.80
37342;DHT22;58643;49.052;8.518;2022-08-06T08:29:16;22.20;75.60
37342;DHT22;58643;49.052;8.518;2022-08-06T08:31:41;22.20;73.10
37342;DHT22;58643;49.052;8.518;2022-08-06T08:34:07;22.40;73.30
37342;DHT22;58643;49.052;8.518;2022-08-06T08:36:33;22.30;73.30
37342;DHT22;58643;49.052;8.518;2022-08-06T08:38:59;22.30;73.00
37342;DHT22;58643;49.052;8.518;2022-08-06T08:41:39;22.70;73.20
37342;DHT22;58643;49.052;8.518;2022-08-06T08:44:06;22.60;70.50
37342;DHT22;58643;49.052;8.518;2022-08-06T08:46:43;22.60;71.50
37342;DHT22;58643;49.052;8.518;2022-08-06T08:52:02;22.90;68.20
37342;DHT22;58643;49.052;8.518;2022-08-06T08:54:29;22.90;70.10
37342;DHT22;58643;49.052;8.518;2022-08-06T08:56:56;23.00;70.00
37342;DHT22;58643;49.052;8.518;2022-08-06T08:59:22;23.00;68.80
37342;DHT22;58643;49.052;8.518;2022-08-06T09:01:48;23.00;68.60
37342;DHT22;58643;49.052;8.518;2022-08-06T09:04:15;23.10;67.60
37342;DHT22;58643;49.052;8.518;2022-08-06T09:06:41;23.70;68.40
37342;DHT22;58643;49.052;8.518;2022-08-06T09:09:07;23.30;67.70
37342;DHT22;58643;49.052;8.518;2022-08-06T09:11:34;23.40;66.30
37342;DHT22;58643;49.052;8.518;2022-08-06T09:14:01;23.40;65.60
37342;DHT22;58643;49.052;8.518;2022-08-06T09:16:30;23.40;65.90
37342;DHT22;58643;49.052;8.518;2022-08-06T09:18:56;23.10;63.70
37342;DHT22;58643;49.052;8.518;2022-08-06T09:21:22;23.80;66.90
37342;DHT22;58643;49.052;8.518;2022-08-06T09:23:47;22.70;66.50
37342;DHT22;58643;49.052;8.518;2022-08-06T09:26:13;22.60;67.10
37342;DHT22;58643;49.052;8.518;2022-08-06T09:28:41;22.90;66.90
37342;DHT22;58643;49.052;8.518;2022-08-06T09:31:15;23.00;65.90
37342;DHT22;58643;49.052;8.518;2022-08-06T09:33:42;23.10;64.90
37342;DHT22;58643;49.052;8.518;2022-08-06T09:36:17;23.40;64.50
37342;DHT22;58643;49.052;8.518;2022-08-06T09:38:55;23.60;63.70
37342;DHT22;58643;49.052;8.518;2022-08-06T09:41:24;23.80;60.90
37342;DHT22;58643;49.052;8.518;2022-08-06T09:43:54;23.60;62.20
37342;DHT22;58643;49.052;8.518;2022-08-06T09:46:47;23.80;62.50
37342;DHT22;58643;49.052;8.518;2022-08-06T09:49:16;24.40;62.00
37342;DHT22;58643;49.052;8.518;2022-08-06T09:51:42;24.60;61.80
37342;DHT22;58643;49.052;8.518;2022-08-06T09:54:09;25.10;59.40
37342;DHT22;58643;49.052;8.518;2022-08-06T09:56:36;25.10;58.60
37342;DHT22;58643;49.052;8.518;2022-08-06T09:59:07;25.40;58.90
37342;DHT22;58643;49.052;8.518;2022-08-06T10:01:42;25.90;57.10
37342;DHT22;58643;49.052;8.518;2022-08-06T10:04:33;27.00;56.10
37342;DHT22;58643;49.052;8.518;2022-08-06T10:07:00;27.40;55.80
37342;DHT22;58643;49.052;8.518;2022-08-06T10:09:27;27.50;53.90
37342;DHT22;58643;49.052;8.518;2022-08-06T10:11:54;27.90;53.50
37342;DHT22;58643;49.052;8.518;2022-08-06T10:14:33;28.10;52.10
37342;DHT22;58643;49.052;8.518;2022-08-06T10:17:13;28.60;49.10
37342;DHT22;58643;49.052;8.518;2022-08-06T10:19:44;29.10;48.30
37342;DHT22;58643;49.052;8.518;2022-08-06T10:22:15;29.60;47.80
37342;DHT22;58643;49.052;8.518;2022-08-06T10:24:50;29.90;47.30
37342;DHT22;58643;49.052;8.518;2022-08-06T10:27:25;29.70;46.80
37342;DHT22;58643;49.052;8.518;2022-08-06T10:29:57;30.10;48.20
37342;DHT22;58643;49.052;8.518;2022-08-06T10:32:33;30.40;45.00
37342;DHT22;58643;49.052;8.518;2022-08-06T10:35:04;30.20;45.70
37342;DHT22;58643;49.052;8.518;2022-08-06T10:37:32;30.20;44.80
37342;DHT22;58643;49.052;8.518;2022-08-06T10:40:00;30.00;45.30
37342;DHT22;58643;49.052;8.518;2022-08-06T10:42:27;29.80;46.10
37342;DHT22;58643;49.052;8.518;2022-08-06T10:44:52;29.80;45.60
37342;DHT22;58643;49.052;8.518;2022-08-06T10:47:19;29.80;45.50
37342;DHT22;58643;49.052;8.518;2022-08-06T10:49:46;30.10;44.50
37342;DHT22;58643;49.052;8.518;2022-08-06T10:52:13;30.30;44.00
37342;DHT22;58643;49.052;8.518;2022-08-06T10:54:40;30.50;43.40
37342;DHT22;58643;49.052;8.518;2022-08-06T10:57:07;31.00;44.40
37342;DHT22;58643;49.052;8.518;2022-08-06T10:59:41;31.20;43.70
37342;DHT22;58643;49.052;8.518;2022-08-06T11:05:05;31.00;42.60
37342;DHT22;58643;49.052;8.518;2022-08-06T11:14:04;30.70;42.10
37342;DHT22;58643;49.052;8.518;2022-08-06T11:16:31;30.80;43.10
37342;DHT22;58643;49.052;8.518;2022-08-06T11:19:03;30.90;42.20
37342;DHT22;58643;49.052;8.518;2022-08-06T11:22:01;31.40;41.30
37342;DHT22;58643;49.052;8.518;2022-08-06T11:24:27;31.20;42.30
37342;DHT22;58643;49.052;8.518;2022-08-06T11:26:54;31.00;41.90
37342;DHT22;58643;49.052;8.518;2022-08-06T11:29:19;31.50;41.00
37342;DHT22;58643;49.052;8.518;2022-08-06T11:31:47;32.00;41.10
37342;DHT22;58643;49.052;8.518;2022-08-06T11:34:15;32.30;40.80
37342;DHT22;58643;49.052;8.518;2022-08-06T11:36:55;32.20;40.30
37342;DHT22;58643;49.052;8.518;2022-08-06T11:39:23;31.90;39.50
37342;DHT22;58643;49.052;8.518;2022-08-06T11:41:58;31.50;40.60
37342;DHT22;58643;49.052;8.518;2022-08-06T11:44:29;30.20;42.50
37342;DHT22;58643;49.052;8.518;2022-08-06T11:47:15;29.70;43.80
37342;DHT22;58643;49.052;8.518;2022-08-06T11:49:49;30.20;41.90
37342;DHT22;58643;49.052;8.518;2022-08-06T11:52:39;30.60;41.70
37342;DHT22;58643;49.052;8.518;2022-08-06T11:55:10;31.00;41.30
37342;DHT22;58643;49.052;8.518;2022-08-06T11:57:36;30.80;40.70
37342;DHT22;58643;49.052;8.518;2022-08-06T12:00:07;30.60;41.80
37342;DHT22;58643;49.052;8.518;2022-08-06T12:08:21;30.70;40.40
37342;DHT22;58643;49.052;8.518;2022-08-06T12:11:21;30.90;39.90
37342;DHT22;58643;49.052;8.518;2022-08-06T12:13:48;31.10;39.40
37342;DHT22;58643;49.052;8.518;2022-08-06T12:16:28;31.10;39.90
37342;DHT22;58643;49.052;8.518;2022-08-06T12:18:54;30.60;40.00
37342;DHT22;58643;49.052;8.518;2022-08-06T12:21:21;31.40;40.30
37342;DHT22;58643;49.052;8.518;2022-08-06T12:23:50;31.00;40.70
37342;DHT22;58643;49.052;8.518;2022-08-06T12:26:16;31.00;40.70
37342;DHT22;58643;49.052;8.518;2022-08-06T12:28:42;31.40;39.40
37342;DHT22;58643;49.052;8.518;2022-08-06T12:31:07;31.00;40.70
37342;DHT22;58643;49.052;8.518;2022-08-06T12:33:40;31.20;39.90
37342;DHT22;58643;49.052;8.518;2022-08-06T12:36:07;31.60;39.40
37342;DHT22;58643;49.052;8.518;2022-08-06T12:38:32;32.10;38.50
37342;DHT22;58643;49.052;8.518;2022-08-06T12:41:05;32.10;39.10
37342;DHT22;58643;49.052;8.518;2022-08-06T12:43:32;31.70;38.50
37342;DHT22;58643;49.052;8.518;2022-08-06T12:46:06;31.80;39.40
37342;DHT22;58643;49.052;8.518;2022-08-06T12:48:33;32.10;37.80
37342;DHT22;58643;49.052;8.518;2022-08-06T12:51:10;32.30;39.60
37342;DHT22;58643;49.052;8.518;2022-08-06T12:53:41;32.70;38.10
37342;DHT22;58643;49.052;8.518;2022-08-06T12:56:07;33.10;38.00
37342;DHT22;58643;49.052;8.518;2022-08-06T12:58:35;32.80;38.00
37342;DHT22;58643;49.052;8.518;2022-08-06T13:01:02;33.30;37.10
37342;DHT22;58643;49.052;8.518;2022-08-06T13:03:29;33.90;36.90
37342;DHT22;58643;49.052;8.518;2022-08-06T13:05:58;34.50;36.00
37342;DHT22;58643;49.052;8.518;2022-08-06T13:08:25;35.10;35.30
37342;DHT22;58643;49.052;8.518;2022-08-06T13:10:53;35.40;35.50
37342;DHT22;58643;49.052;8.518;2022-08-06T13:13:20;35.50;35.60
37342;DHT22;58643;49.052;8.518;2022-08-06T13:16:04;35.80;35.60
37342;DHT22;58643;49.052;8.518;2022-08-06T13:18:30;35.80;34.70
37342;DHT22;58643;49.052;8.518;2022-08-06T13:20:56;35.80;36.20
37342;DHT22;58643;49.052;8.518;2022-08-06T13:23:35;36.70;34.40
37342;DHT22;58643;49.052;8.518;2022-08-06T13:26:29;36.30;34.40
37342;DHT22;58643;49.052;8.518;2022-08-06T13:29:13;36.70;34.00
37342;DHT22;58643;49.052;8.518;2022-08-06T13:31:42;37.20;32.90
37342;DHT22;58643;49.052;8.518;2022-08-06T13:34:11;37.20;33.60
37342;DHT22;58643;49.052;8.518;2022-08-06T13:36:38;37.80;33.20
37342;DHT22;58643;49.052;8.518;2022-08-06T13:39:25;38.40;32.00
37342;DHT22;58643;49.052;8.518;2022-08-06T13:42:06;37.80;32.30
37342;DHT22;58643;49.052;8.518;2022-08-06T13:44:35;36.30;33.20
37342;DHT22;58643;49.052;8.518;2022-08-06T13:47:04;35.80;33.90
37342;DHT22;58643;49.052;8.518;2022-08-06T13:49:30;35.40;34.90
37342;DHT22;58643;49.052;8.518;2022-08-06T13:51:56;35.60;33.70
37342;DHT22;58643;49.052;8.518;2022-08-06T13:54:23;36.70;33.60
37342;DHT22;58643;49.052;8.518;2022-08-06T13:56:50;37.10;32.50
37342;DHT22;58643;49.052;8.518;2022-08-06T13:59:18;37.40;32.40
37342;DHT22;58643;49.052;8.518;2022-08-06T14:01:45;37.40;32.10
37342;DHT22;58643;49.052;8.518;2022-08-06T14:04:12;37.90;32.40
37342;DHT22;58643;49.052;8.518;2022-08-06T14:06:37;38.70;31.80
37342;DHT22;58643;49.052;8.518;2022-08-06T14:09:03;39.30;30.80
37342;DHT22;58643;49.052;8.518;2022-08-06T14:11:29;39.30;30.80
37342;DHT22;58643;49.052;8.518;2022-08-06T14:13:54;39.60;30.60
37342;DHT22;58643;49.052;8.518;2022-08-06T14:16:20;38.80;31.00
37342;DHT22;58643;49.052;8.518;2022-08-06T14:18:46;38.70;31.80
37342;DHT22;58643;49.052;8.518;2022-08-06T14:21:11;39.10;32.40
37342;DHT22;58643;49.052;8.518;2022-08-06T14:23:37;39.30;31.40
37342;DHT22;58643;49.052;8.518;2022-08-06T14:26:02;39.20;31.40
37342;DHT22;58643;49.052;8.518;2022-08-06T14:28:35;38.30;32.10
37342;DHT22;58643;49.052;8.518;2022-08-06T14:31:01;37.80;31.50
37342;DHT22;58643;49.052;8.518;2022-08-06T14:33:27;38.80;31.40
37342;DHT22;58643;49.052;8.518;2022-08-06T14:35:52;38.90;31.40
37342;DHT22;58643;49.052;8.518;2022-08-06T14:38:19;38.50;30.50
37342;DHT22;58643;49.052;8.518;2022-08-06T14:40:45;38.00;31.30
37342;DHT22;58643;49.052;8.518;2022-08-06T14:43:29;38.40;30.90
37342;DHT22;58643;49.052;8.518;2022-08-06T14:46:14;38.30;31.00
37342;DHT22;58643;49.052;8.518;2022-08-06T14:48:39;38.00;32.20
37342;DHT22;58643;49.052;8.518;2022-08-06T14:51:05;37.90;31.40
37342;DHT22;58643;49.052;8.518;2022-08-06T14:53:30;38.00;31.20
37342;DHT22;58643;49.052;8.518;2022-08-06T14:55:56;38.90;31.30
37342;DHT22;58643;49.052;8.518;2022-08-06T14:58:21;38.30;30.60
37342;DHT22;58643;49.052;8.518;2022-08-06T15:00:47;38.10;31.10
37342;DHT22;58643;49.052;8.518;2022-08-06T15:03:14;38.20;31.00
37342;DHT22;58643;49.052;8.518;2022-08-06T15:05:43;38.20;30.60
37342;DHT22;58643;49.052;8.518;2022-08-06T15:08:10;37.90;31.20
37342;DHT22;58643;49.052;8.518;2022-08-06T15:10:35;38.10;31.10
37342;DHT22;58643;49.052;8.518;2022-08-06T15:13:02;38.40;31.10
37342;DHT22;58643;49.052;8.518;2022-08-06T15:15:28;38.60;30.60
37342;DHT22;58643;49.052;8.518;2022-08-06T15:17:53;38.60;30.30
37342;DHT22;58643;49.052;8.518;2022-08-06T15:20:19;38.60;30.90
37342;DHT22;58643;49.052;8.518;2022-08-06T15:22:56;39.30;30.10
37342;DHT22;58643;49.052;8.518;2022-08-06T15:25:22;39.60;29.80
37342;DHT22;58643;49.052;8.518;2022-08-06T15:27:48;40.20;29.40
37342;DHT22;58643;49.052;8.518;2022-08-06T15:30:14;39.80;30.00
37342;DHT22;58643;49.052;8.518;2022-08-06T15:32:40;39.60;29.90
37342;DHT22;58643;49.052;8.518;2022-08-06T15:35:06;39.70;29.50
37342;DHT22;58643;49.052;8.518;2022-08-06T15:37:32;39.00;29.80
37342;DHT22;58643;49.052;8.518;2022-08-06T15:39:58;39.30;29.50
37342;DHT22;58643;49.052;8.518;2022-08-06T15:42:24;39.80;29.50
37342;DHT22;58643;49.052;8.518;2022-08-06T15:44:52;39.50;29.80
37342;DHT22;58643;49.052;8.518;2022-08-06T15:47:19;39.10;29.80
37342;DHT22;58643;49.052;8.518;2022-08-06T15:49:45;38.10;29.80
37342;DHT22;58643;49.052;8.518;2022-08-06T15:52:10;37.20;30.10
37342;DHT22;58643;49.052;8.518;2022-08-06T15:54:36;37.10;30.30
37342;DHT22;58643;49.052;8.518;2022-08-06T15:57:02;37.20;30.50
37342;DHT22;58643;49.052;8.518;2022-08-06T15:59:27;37.60;30.10
37342;DHT22;58643;49.052;8.518;2022-08-06T16:01:53;37.50;30.80
37342;DHT22;58643;49.052;8.518;2022-08-06T16:04:19;38.00;30.00
37342;DHT22;58643;49.052;8.518;2022-08-06T16:06:44;38.10;29.90
37342;DHT22;58643;49.052;8.518;2022-08-06T16:09:10;38.30;29.90
37342;DHT22;58643;49.052;8.518;2022-08-06T16:11:36;38.40;29.70
37342;DHT22;58643;49.052;8.518;2022-08-06T16:14:01;37.70;29.60
37342;DHT22;58643;49.052;8.518;2022-08-06T16:16:27;36.20;30.40
37342;DHT22;58643;49.052;8.518;2022-08-06T16:18:55;35.70;30.60
37342;DHT22;58643;49.052;8.518;2022-08-06T16:21:20;36.10;30.80
37342;DHT22;58643;49.052;8.518;2022-08-06T16:23:46;37.10;30.30
37342;DHT22;58643;49.052;8.518;2022-08-06T16:26:11;37.70;29.90